Terminal Aerodrome Forecast
Issued by NWS Milwaukee/Sullivan, WI

Home | Current Version | Previous Version | Text Only | Print | Product List | Glossary On
Versions: 1 2 3 4 5 6 7 8 9 10 11 12 13 14 15 16 17 18 19 20 21 22 23 24 25 26 27 28 29 30 31 32 33 34 35 36 37 38 39 40 41 42 43 44 45 46 47 48 49 50
539
FTUS43 KMKX 262345
TAFMSN
TAF
KMSN 262345Z 2700/2724 04004KT P6SM SCT200 BKN250
     FM270500 VRB03KT P6SM VCTS BKN045CB
     FM270800 10004KT 5SM -SHRA VCTS OVC015CB
     FM271200 11004KT 3SM -SHRA VCTS OVC008CB
     FM271500 12007KT P6SM OVC008 PROB30 2715/2717 4SM TSRA OVC003CB
     FM272100 20007KT P6SM OVC050=

USA.gov is the U.S. government's official web portal to all federal, state and local government web resources and services.